createdAt,value
2022-12-25T00:00:20.596Z,8.20
2022-12-25T00:01:32.431Z,7.90
2022-12-25T00:03:39.216Z,8.30
2022-12-25T00:04:21.029Z,8.00
2022-12-25T00:05:02.780Z,8.40
2022-12-25T00:06:26.552Z,8.30
2022-12-25T00:07:08.201Z,8.00
2022-12-25T00:07:50.028Z,8.00
2022-12-25T00:08:32.616Z,8.40
2022-12-25T00:09:14.345Z,8.10
2022-12-25T00:09:56.057Z,8.10
2022-12-25T00:10:44.717Z,8.40
2022-12-25T00:12:09.568Z,8.10
2022-12-25T00:14:18.167Z,8.40
2022-12-25T00:16:26.514Z,8.30
2022-12-25T00:18:33.102Z,8.30
2022-12-25T00:19:17.226Z,8.20
2022-12-25T00:20:01.533Z,8.20
2022-12-25T00:21:25.543Z,8.20
2022-12-25T00:22:07.281Z,8.10
2022-12-25T00:23:35.255Z,8.60
2022-12-25T00:24:22.144Z,8.30
2022-12-25T00:25:46.257Z,8.50
2022-12-25T00:26:28.404Z,8.20
2022-12-25T00:27:10.252Z,8.40
2022-12-25T00:27:54.310Z,8.50
2022-12-25T00:29:21.240Z,8.40
2022-12-25T00:30:03.624Z,8.20
2022-12-25T00:30:45.516Z,8.10
2022-12-25T00:32:12.373Z,8.30
2022-12-25T00:32:54.098Z,8.30
2022-12-25T00:33:37.237Z,8.20
2022-12-25T00:34:19.276Z,8.30
2022-12-25T00:35:43.618Z,8.30
2022-12-25T00:36:25.456Z,8.30
2022-12-25T00:37:49.609Z,8.40
2022-12-25T00:38:31.388Z,8.50
2022-12-25T00:40:44.212Z,8.60
2022-12-25T00:44:35.652Z,8.50
2022-12-25T00:45:17.790Z,8.70
2022-12-25T00:46:44.320Z,8.30
2022-12-25T00:47:26.331Z,8.70
2022-12-25T00:48:08.411Z,8.40
2022-12-25T00:48:52.541Z,8.50
2022-12-25T00:50:20.283Z,8.50
2022-12-25T00:51:10.479Z,8.70
2022-12-25T00:51:53.553Z,8.30
2022-12-25T00:53:59.947Z,8.60
2022-12-25T00:54:41.701Z,8.70
2022-12-25T00:55:23.598Z,8.40
2022-12-25T00:56:07.416Z,8.60
2022-12-25T00:58:59.040Z,8.50
2022-12-25T00:59:40.823Z,8.40
2022-12-25T01:01:09.704Z,8.80
2022-12-25T01:02:36.869Z,8.40
2022-12-25T01:03:19.066Z,8.60
2022-12-25T01:04:01.330Z,8.80
2022-12-25T01:04:45.393Z,8.80
2022-12-25T01:06:11.147Z,8.60
2022-12-25T01:10:20.586Z,8.70
2022-12-25T01:12:39.675Z,8.70
2022-12-25T01:14:03.982Z,8.70
2022-12-25T01:15:28.721Z,8.50
2022-12-25T01:17:36.745Z,8.40
2022-12-25T01:18:22.390Z,8.70
2022-12-25T01:19:04.686Z,8.50
2022-12-25T01:19:46.481Z,8.80
2022-12-25T01:20:28.506Z,8.60
2022-12-25T01:22:36.263Z,8.70
2022-12-25T01:24:02.817Z,8.80
2022-12-25T01:24:45.126Z,8.60
2022-12-25T01:25:27.035Z,8.70
2022-12-25T01:26:11.347Z,8.30
2022-12-25T01:29:00.596Z,8.70
2022-12-25T01:30:24.472Z,8.50
2022-12-25T01:31:10.058Z,8.60
2022-12-25T01:31:52.070Z,8.80
2022-12-25T01:32:34.067Z,8.60
2022-12-25T01:33:15.820Z,8.70
2022-12-25T01:36:17.876Z,8.60
2022-12-25T01:36:59.830Z,8.80
2022-12-25T01:37:41.586Z,8.60
2022-12-25T01:38:23.430Z,8.80
2022-12-25T01:39:05.777Z,8.80
2022-12-25T01:39:48.881Z,9.00
2022-12-25T01:40:33.691Z,8.60
2022-12-25T01:41:17.585Z,8.50
2022-12-25T01:41:59.440Z,8.70
2022-12-25T01:43:29.383Z,8.70
2022-12-25T01:44:13.882Z,9.00
2022-12-25T01:45:18.497Z,8.70
2022-12-25T01:46:00.755Z,8.80
2022-12-25T01:46:43.614Z,8.50
2022-12-25T01:49:38.834Z,8.80
2022-12-25T01:50:21.068Z,8.80
2022-12-25T01:51:11.187Z,8.90
2022-12-25T01:52:07.436Z,8.50
2022-12-25T01:54:20.534Z,9.10
2022-12-25T01:55:05.292Z,8.70
2022-12-25T01:57:18.680Z,9.00
2022-12-25T01:58:00.618Z,8.90
2022-12-25T01:58:43.011Z,9.10
2022-12-25T01:59:29.735Z,8.70
2022-12-25T02:00:12.645Z,8.90
2022-12-25T02:00:54.657Z,9.00
2022-12-25T02:01:36.736Z,9.00
2022-12-25T02:03:44.046Z,9.00
2022-12-25T02:04:41.048Z,8.90
2022-12-25T02:05:28.525Z,9.00
2022-12-25T02:06:12.650Z,8.60
2022-12-25T02:07:41.168Z,8.80
2022-12-25T02:10:30.713Z,9.10
2022-12-25T02:14:05.052Z,9.00
2022-12-25T02:14:49.516Z,8.90
2022-12-25T02:15:59.359Z,8.70
2022-12-25T02:16:57.929Z,8.90
2022-12-25T02:18:44.392Z,8.80
2022-12-25T02:19:47.694Z,8.90
2022-12-25T02:20:44.042Z,9.00
2022-12-25T02:21:44.408Z,8.60
2022-12-25T02:22:55.730Z,9.20
2022-12-25T02:24:04.681Z,8.90
2022-12-25T02:25:25.827Z,9.10
2022-12-25T02:27:41.826Z,8.90
2022-12-25T02:30:55.081Z,8.80
2022-12-25T02:31:59.383Z,9.00
2022-12-25T02:33:18.340Z,9.20
2022-12-25T02:34:26.097Z,8.80
2022-12-25T02:35:28.631Z,8.90
2022-12-25T02:36:17.369Z,8.80
2022-12-25T02:37:14.332Z,8.70
2022-12-25T02:39:06.312Z,9.00
2022-12-25T02:40:13.049Z,9.00
2022-12-25T02:41:00.144Z,9.20
2022-12-25T02:41:45.844Z,9.10
2022-12-25T02:42:52.927Z,9.10
2022-12-25T02:45:02.118Z,9.00
2022-12-25T02:46:17.211Z,8.80
2022-12-25T02:49:26.982Z,9.10
2022-12-25T02:50:28.223Z,9.10
2022-12-25T02:52:35.165Z,8.80
2022-12-25T02:53:35.372Z,8.90
2022-12-25T02:56:42.795Z,8.80
2022-12-25T02:57:47.911Z,8.70
2022-12-25T02:58:49.033Z,8.90
2022-12-25T02:59:51.864Z,9.20
2022-12-25T03:01:00.508Z,8.90
2022-12-25T03:02:02.485Z,8.80
2022-12-25T03:03:21.388Z,9.10
2022-12-25T03:04:27.189Z,9.10
2022-12-25T03:06:31.381Z,9.00
2022-12-25T03:07:24.570Z,9.20
2022-12-25T03:08:54.874Z,9.10
2022-12-25T03:11:56.912Z,9.10
2022-12-25T03:12:48.663Z,8.90
2022-12-25T03:13:36.945Z,9.10
2022-12-25T03:14:37.531Z,9.10
2022-12-25T03:15:39.622Z,8.80
2022-12-25T03:16:41.554Z,9.20
2022-12-25T03:18:55.877Z,8.90
2022-12-25T03:21:00.318Z,9.10
2022-12-25T03:22:17.168Z,9.10
2022-12-25T03:23:17.814Z,9.20
2022-12-25T03:24:20.614Z,9.20
2022-12-25T03:25:21.548Z,9.00
2022-12-25T03:26:24.846Z,8.90
2022-12-25T03:27:08.985Z,9.20
2022-12-25T03:30:38.970Z,9.00
2022-12-25T03:32:19.366Z,8.90
2022-12-25T03:33:43.997Z,9.00
2022-12-25T03:34:45.424Z,9.00
2022-12-25T03:36:59.105Z,9.00
2022-12-25T03:38:30.253Z,9.30
2022-12-25T03:39:46.877Z,9.20
2022-12-25T03:40:59.597Z,9.10
2022-12-25T03:44:21.628Z,9.20
2022-12-25T03:45:27.182Z,9.40
2022-12-25T03:46:32.165Z,9.20
2022-12-25T03:47:37.518Z,9.20
2022-12-25T03:48:38.385Z,9.30
2022-12-25T03:50:04.191Z,9.20
2022-12-25T03:53:11.628Z,9.60
2022-12-25T03:54:17.012Z,9.40
2022-12-25T03:57:27.617Z,9.30
2022-12-25T03:59:40.875Z,9.20
2022-12-25T04:00:41.240Z,9.30
2022-12-25T04:02:42.344Z,9.20
2022-12-25T04:04:45.915Z,9.60
2022-12-25T04:05:46.020Z,9.60
2022-12-25T04:06:46.265Z,9.40
2022-12-25T04:07:48.940Z,9.60
2022-12-25T04:10:51.017Z,9.30
2022-12-25T04:11:50.931Z,9.20
2022-12-25T04:12:51.059Z,9.50
2022-12-25T04:13:51.202Z,9.40
2022-12-25T04:15:54.491Z,9.20
2022-12-25T04:19:57.652Z,9.10
2022-12-25T04:20:58.187Z,9.40
2022-12-25T04:21:58.449Z,9.30
2022-12-25T04:26:03.051Z,9.40
2022-12-25T04:27:03.215Z,9.50
2022-12-25T04:31:08.404Z,9.50
2022-12-25T04:34:12.752Z,9.40
2022-12-25T04:35:13.295Z,9.40
2022-12-25T04:36:11.362Z,9.20
2022-12-25T04:38:20.855Z,9.70
2022-12-25T04:39:03.810Z,9.40
2022-12-25T04:41:12.280Z,9.60
2022-12-25T04:44:00.392Z,9.20
2022-12-25T04:44:44.437Z,9.50
2022-12-25T04:47:33.454Z,9.60
2022-12-25T04:48:15.326Z,9.10
2022-12-25T04:48:59.183Z,9.40
2022-12-25T04:49:40.938Z,9.40
2022-12-25T04:50:22.693Z,9.40
2022-12-25T04:51:16.533Z,9.40
2022-12-25T04:51:58.364Z,9.20
2022-12-25T04:52:41.353Z,9.30
2022-12-25T04:53:23.381Z,9.10
2022-12-25T04:54:07.326Z,9.40
2022-12-25T04:55:31.360Z,9.20
2022-12-25T04:56:13.722Z,9.00
2022-12-25T04:58:24.473Z,9.00
2022-12-25T04:59:48.525Z,9.10
2022-12-25T05:00:30.347Z,9.00
2022-12-25T05:01:54.584Z,9.20
2022-12-25T05:04:43.460Z,9.20
2022-12-25T05:05:25.580Z,8.90
2022-12-25T05:06:52.851Z,9.30
2022-12-25T05:07:34.744Z,9.00
2022-12-25T05:08:16.531Z,9.20
2022-12-25T05:08:58.469Z,8.90
2022-12-25T05:09:41.879Z,8.90
2022-12-25T05:11:08.792Z,8.90
2022-12-25T05:12:32.841Z,9.30
2022-12-25T05:13:14.790Z,9.40
2022-12-25T05:13:57.514Z,9.20
2022-12-25T05:16:08.999Z,9.40
2022-12-25T05:16:50.903Z,8.80
2022-12-25T05:17:32.761Z,9.30
2022-12-25T05:18:14.622Z,8.90
2022-12-25T05:18:56.477Z,8.70
2022-12-25T05:20:20.426Z,9.10
2022-12-25T05:26:07.058Z,9.00
2022-12-25T05:26:49.070Z,9.00
2022-12-25T05:27:30.859Z,9.10
2022-12-25T05:28:12.664Z,9.00
2022-12-25T05:28:57.924Z,8.90
2022-12-25T05:30:26.545Z,8.80
2022-12-25T05:31:08.657Z,9.00
2022-12-25T05:33:15.881Z,9.00
2022-12-25T05:34:42.673Z,8.80
2022-12-25T05:36:08.606Z,9.10
2022-12-25T05:38:14.655Z,8.80
2022-12-25T05:41:02.890Z,9.10
2022-12-25T05:41:44.700Z,8.70
2022-12-25T05:42:26.583Z,8.90
2022-12-25T05:43:50.688Z,9.20
2022-12-25T05:44:34.833Z,9.00
2022-12-25T05:45:16.649Z,9.00
2022-12-25T05:46:05.725Z,9.20
2022-12-25T05:50:21.002Z,9.20
2022-12-25T05:51:22.595Z,9.20
2022-12-25T05:55:36.855Z,8.80
2022-12-25T05:59:10.016Z,9.20
2022-12-25T05:59:51.765Z,9.10
2022-12-25T06:00:34.189Z,9.20
2022-12-25T06:01:22.320Z,8.70
2022-12-25T06:02:46.881Z,9.10
2022-12-25T06:04:55.135Z,9.30
2022-12-25T06:05:39.315Z,9.00
2022-12-25T06:06:23.566Z,9.00
2022-12-25T06:07:05.333Z,9.00
2022-12-25T06:07:47.079Z,9.30
2022-12-25T06:10:37.642Z,9.20
2022-12-25T06:11:19.654Z,8.90
2022-12-25T06:12:03.740Z,8.70
2022-12-25T06:12:46.910Z,9.30
2022-12-25T06:13:28.700Z,9.00
2022-12-25T06:14:16.883Z,9.10
2022-12-25T06:14:58.700Z,9.00
2022-12-25T06:17:50.493Z,8.90
2022-12-25T06:18:36.728Z,8.80
2022-12-25T06:21:25.247Z,9.20
2022-12-25T06:22:07.018Z,9.20
2022-12-25T06:22:48.900Z,9.00
2022-12-25T06:23:30.763Z,9.10
2022-12-25T06:24:19.186Z,9.20
2022-12-25T06:27:53.803Z,8.90
2022-12-25T06:28:35.785Z,8.80
2022-12-25T06:29:17.820Z,9.00
2022-12-25T06:29:59.850Z,9.20
2022-12-25T06:30:48.943Z,9.10
2022-12-25T06:32:55.557Z,8.90
2022-12-25T06:34:19.840Z,9.40
2022-12-25T06:35:46.299Z,9.20
2022-12-25T06:37:11.376Z,9.10
2022-12-25T06:40:42.084Z,8.90
2022-12-25T06:41:29.030Z,9.10
2022-12-25T06:44:20.516Z,9.30
2022-12-25T06:45:02.290Z,9.00
2022-12-25T06:45:44.111Z,9.40
2022-12-25T06:46:31.116Z,9.20
2022-12-25T06:47:13.334Z,9.10
2022-12-25T06:47:58.183Z,9.20
2022-12-25T06:48:41.340Z,9.10
2022-12-25T06:49:24.160Z,9.50
2022-12-25T06:50:06.910Z,9.10
2022-12-25T06:50:50.738Z,9.30
2022-12-25T06:52:15.300Z,9.00
2022-12-25T06:52:57.254Z,9.00
2022-12-25T06:53:39.757Z,9.50
2022-12-25T06:56:31.713Z,9.40
2022-12-25T06:57:55.891Z,9.40
2022-12-25T06:58:37.995Z,9.40
2022-12-25T06:59:20.044Z,9.10
2022-12-25T07:00:01.991Z,9.50
2022-12-25T07:00:43.843Z,9.30
2022-12-25T07:01:27.656Z,9.50
2022-12-25T07:02:18.945Z,9.60
2022-12-25T07:03:01.034Z,9.10
2022-12-25T07:03:44.965Z,9.40
2022-12-25T07:06:41.017Z,9.20
2022-12-25T07:08:05.594Z,9.50
2022-12-25T07:08:47.583Z,9.40
2022-12-25T07:09:29.394Z,9.60
2022-12-25T07:10:11.425Z,9.40
2022-12-25T07:10:53.180Z,9.40
2022-12-25T07:13:00.944Z,9.40
2022-12-25T07:14:25.047Z,9.20
2022-12-25T07:15:07.501Z,9.60
2022-12-25T07:15:58.228Z,9.10
2022-12-25T07:16:40.465Z,9.40
2022-12-25T07:17:23.078Z,9.30
2022-12-25T07:18:47.056Z,9.10
2022-12-25T07:20:55.655Z,9.40
2022-12-25T07:23:01.655Z,9.10
2022-12-25T07:23:44.332Z,9.30
2022-12-25T07:24:26.172Z,9.30
2022-12-25T07:26:38.019Z,9.50
2022-12-25T07:27:22.132Z,9.10
2022-12-25T07:28:04.010Z,9.40
2022-12-25T07:28:46.004Z,9.20
2022-12-25T07:29:27.944Z,9.40
2022-12-25T07:30:10.219Z,9.40
2022-12-25T07:30:52.620Z,9.20
2022-12-25T07:31:34.510Z,9.50
2022-12-25T07:32:16.529Z,9.50
2022-12-25T07:32:58.490Z,9.20
2022-12-25T07:35:08.137Z,9.70
2022-12-25T07:36:32.319Z,9.60
2022-12-25T07:37:56.481Z,9.50
2022-12-25T07:38:38.383Z,9.30
2022-12-25T07:39:23.823Z,9.40
2022-12-25T07:45:59.334Z,9.20
2022-12-25T07:46:41.121Z,9.80
2022-12-25T07:48:07.580Z,9.50
2022-12-25T07:50:17.093Z,9.30
2022-12-25T07:51:03.793Z,9.40
2022-12-25T07:53:54.076Z,9.70
2022-12-25T07:56:03.266Z,9.60
2022-12-25T07:56:45.489Z,9.60
2022-12-25T07:57:27.437Z,9.60
2022-12-25T07:58:09.209Z,9.50
2022-12-25T07:58:51.156Z,9.70
2022-12-25T07:59:32.989Z,9.30
2022-12-25T08:00:15.493Z,9.50
2022-12-25T08:01:03.136Z,9.70
2022-12-25T08:01:45.237Z,9.80
2022-12-25T08:03:11.319Z,9.60
2022-12-25T08:05:19.384Z,9.50
2022-12-25T08:06:02.693Z,9.40
2022-12-25T08:06:44.454Z,9.70
2022-12-25T08:07:27.317Z,9.50
2022-12-25T08:09:36.317Z,9.40
2022-12-25T08:10:20.528Z,9.60
2022-12-25T08:11:46.809Z,9.90
2022-12-25T08:13:14.723Z,9.70
2022-12-25T08:13:56.929Z,9.80
2022-12-25T08:14:38.798Z,9.50
2022-12-25T08:15:20.588Z,9.70
2022-12-25T08:17:31.284Z,9.80
2022-12-25T08:18:55.235Z,9.90
2022-12-25T08:19:37.019Z,9.60
2022-12-25T08:20:18.743Z,9.70
2022-12-25T08:23:13.199Z,9.70
2022-12-25T08:24:37.130Z,9.80
2022-12-25T08:26:05.178Z,9.80
2022-12-25T08:26:48.038Z,9.70
2022-12-25T08:27:29.776Z,9.90
2022-12-25T08:28:11.851Z,9.70
2022-12-25T08:28:53.612Z,9.80
2022-12-25T08:29:35.658Z,9.80
2022-12-25T08:30:17.488Z,9.60
2022-12-25T08:30:59.406Z,9.80
2022-12-25T08:31:46.523Z,9.70
2022-12-25T08:32:28.578Z,9.50
2022-12-25T08:35:21.340Z,9.80
2022-12-25T08:36:10.249Z,9.70
2022-12-25T08:36:54.135Z,9.80
2022-12-25T08:37:35.893Z,9.60
2022-12-25T08:38:18.788Z,9.60
2022-12-25T08:39:03.332Z,9.70
2022-12-25T08:39:45.365Z,9.80
2022-12-25T08:40:27.083Z,10.00
2022-12-25T08:51:11.582Z,9.90
2022-12-25T08:51:53.413Z,10.20
2022-12-25T08:58:22.403Z,10.10
2022-12-25T09:02:36.471Z,9.90
2022-12-25T09:04:45.634Z,10.00
2022-12-25T09:06:15.655Z,9.80
2022-12-25T09:08:24.313Z,10.10
2022-12-25T09:09:06.216Z,9.70
2022-12-25T09:11:15.000Z,9.90
2022-12-25T09:13:21.401Z,10.10
2022-12-25T09:14:03.157Z,10.20
2022-12-25T09:14:44.917Z,10.10
2022-12-25T09:17:42.529Z,10.10
2022-12-25T09:18:24.501Z,10.20
2022-12-25T09:19:09.318Z,10.10
2022-12-25T09:19:51.145Z,10.00
2022-12-25T09:22:42.507Z,10.10
2022-12-25T09:24:06.851Z,10.00
2022-12-25T09:24:48.672Z,10.00
2022-12-25T09:26:17.520Z,10.10
2022-12-25T09:28:25.817Z,10.30
2022-12-25T09:30:32.070Z,10.00
2022-12-25T09:33:22.922Z,10.00
2022-12-25T09:34:04.721Z,9.90
2022-12-25T09:35:28.557Z,10.30
2022-12-25T09:36:11.142Z,10.10
2022-12-25T09:36:52.926Z,10.10
2022-12-25T09:37:35.479Z,9.90
2022-12-25T09:38:17.216Z,10.00
2022-12-25T09:38:58.968Z,10.10
2022-12-25T09:39:46.409Z,10.00
2022-12-25T09:40:31.685Z,10.20
2022-12-25T09:41:28.352Z,10.10
2022-12-25T09:42:17.091Z,10.00
2022-12-25T09:42:59.861Z,10.10
2022-12-25T09:44:03.628Z,10.00
2022-12-25T09:44:51.578Z,9.90
2022-12-25T09:45:37.421Z,9.70
2022-12-25T09:46:25.163Z,9.80
2022-12-25T09:47:12.081Z,10.10
2022-12-25T09:47:56.937Z,10.10
2022-12-25T09:48:42.947Z,9.70
2022-12-25T09:49:30.387Z,10.00
2022-12-25T09:50:20.494Z,10.10
2022-12-25T09:51:15.105Z,10.00
2022-12-25T09:52:12.583Z,9.70
2022-12-25T09:53:05.592Z,10.00
2022-12-25T09:53:53.916Z,10.20
2022-12-25T09:54:56.409Z,9.90
2022-12-25T09:55:45.808Z,10.10
2022-12-25T09:56:27.678Z,10.00
2022-12-25T09:57:16.414Z,9.70
2022-12-25T09:58:10.686Z,10.10
2022-12-25T09:58:53.527Z,10.00
2022-12-25T09:59:35.613Z,9.80
2022-12-25T10:00:23.654Z,10.20
2022-12-25T10:01:17.753Z,9.90
2022-12-25T10:02:17.310Z,10.10
2022-12-25T10:03:31.195Z,10.00
2022-12-25T10:04:24.733Z,10.00
2022-12-25T10:05:19.146Z,10.10
2022-12-25T10:06:12.130Z,10.10
2022-12-25T10:07:02.675Z,10.00
2022-12-25T10:07:58.374Z,10.10
2022-12-25T10:09:17.510Z,10.20
2022-12-25T10:10:17.843Z,10.00
2022-12-25T10:11:19.824Z,10.10
2022-12-25T10:12:10.052Z,10.00
2022-12-25T10:13:15.101Z,10.00
2022-12-25T10:14:05.941Z,10.10
2022-12-25T10:15:39.270Z,10.10
2022-12-25T10:16:37.390Z,10.00
2022-12-25T10:17:40.151Z,9.90
2022-12-25T10:18:58.087Z,10.00
2022-12-25T10:19:53.138Z,10.20
2022-12-25T10:20:49.309Z,9.70
2022-12-25T10:21:31.873Z,10.10
2022-12-25T10:22:20.496Z,9.90
2022-12-25T10:23:06.265Z,10.10
2022-12-25T10:23:58.324Z,10.20
2022-12-25T10:24:51.284Z,10.10
2022-12-25T10:25:33.192Z,10.10
2022-12-25T10:26:21.126Z,10.20
2022-12-25T10:27:13.992Z,10.10
2022-12-25T10:28:53.934Z,10.10
2022-12-25T10:29:36.115Z,10.10
2022-12-25T10:30:25.830Z,10.30
2022-12-25T10:31:20.123Z,10.30
2022-12-25T10:32:02.034Z,10.30
2022-12-25T10:32:45.586Z,10.40
2022-12-25T10:33:28.349Z,10.30
2022-12-25T10:34:12.486Z,10.30
2022-12-25T10:34:54.309Z,10.10
2022-12-25T10:35:37.818Z,10.00
2022-12-25T10:36:26.362Z,10.20
2022-12-25T10:37:11.648Z,10.40
2022-12-25T10:38:03.134Z,10.40
2022-12-25T10:38:45.113Z,10.30
2022-12-25T10:39:26.918Z,10.20
2022-12-25T10:40:24.912Z,10.40
2022-12-25T10:41:34.343Z,10.40
2022-12-25T10:42:35.993Z,10.40
2022-12-25T10:44:26.387Z,10.40
2022-12-25T10:45:09.641Z,10.30
2022-12-25T10:45:51.432Z,10.10
2022-12-25T10:46:33.307Z,10.40
2022-12-25T10:47:25.417Z,10.00
2022-12-25T10:48:08.070Z,10.20
2022-12-25T10:48:54.189Z,10.30
2022-12-25T10:49:39.280Z,10.40
2022-12-25T10:50:25.311Z,10.40
2022-12-25T10:51:07.755Z,13.60
2022-12-25T10:52:32.292Z,10.50
2022-12-25T10:53:30.602Z,10.30
2022-12-25T10:55:15.489Z,10.30
2022-12-25T10:56:03.877Z,10.10
2022-12-25T10:57:01.709Z,10.40
2022-12-25T10:57:46.648Z,10.10
2022-12-25T10:58:29.377Z,10.20
2022-12-25T10:59:11.688Z,10.30
2022-12-25T11:00:40.211Z,10.50
2022-12-25T11:01:22.093Z,10.30
2022-12-25T11:02:25.304Z,10.50
2022-12-25T11:03:21.613Z,10.20
2022-12-25T11:04:06.369Z,10.40
2022-12-25T11:04:48.750Z,10.30
2022-12-25T11:05:32.707Z,10.30
2022-12-25T11:06:25.729Z,10.00
2022-12-25T11:07:13.211Z,10.30
2022-12-25T11:07:56.850Z,10.10
2022-12-25T11:08:38.901Z,10.50
2022-12-25T11:09:20.704Z,10.20
2022-12-25T11:10:17.087Z,10.40
2022-12-25T11:11:06.291Z,10.10
2022-12-25T11:11:51.020Z,10.00
2022-12-25T11:12:41.632Z,10.20
2022-12-25T11:13:27.035Z,10.50
2022-12-25T11:14:17.962Z,10.50
2022-12-25T11:15:06.045Z,10.40
2022-12-25T11:16:03.587Z,10.10
2022-12-25T11:16:45.433Z,10.10
2022-12-25T11:17:28.175Z,10.50
2022-12-25T11:18:20.208Z,10.40
2022-12-25T11:19:02.757Z,10.30
2022-12-25T11:19:59.206Z,10.20
2022-12-25T11:20:52.222Z,10.40
2022-12-25T11:22:19.095Z,10.30
2022-12-25T11:23:00.851Z,10.40
2022-12-25T11:23:49.771Z,10.10
2022-12-25T11:24:33.297Z,10.50
2022-12-25T11:25:22.768Z,10.50
2022-12-25T11:26:08.073Z,10.20
2022-12-25T11:26:52.873Z,10.20
2022-12-25T11:27:37.035Z,10.00
2022-12-25T11:28:18.854Z,10.40
2022-12-25T11:29:01.092Z,10.50
2022-12-25T11:29:48.961Z,10.50
2022-12-25T11:30:33.812Z,10.60
2022-12-25T11:31:21.386Z,10.30
2022-12-25T11:32:05.733Z,10.50
2022-12-25T11:32:55.654Z,10.50
2022-12-25T11:34:02.539Z,10.80
2022-12-25T11:34:46.894Z,10.20
2022-12-25T11:35:32.568Z,10.30
2022-12-25T11:36:35.102Z,10.50
2022-12-25T11:37:39.334Z,10.50
2022-12-25T11:38:21.394Z,10.50
2022-12-25T11:39:32.857Z,10.40
2022-12-25T11:40:21.126Z,10.50
2022-12-25T11:41:05.712Z,10.50
2022-12-25T11:41:48.589Z,10.60
2022-12-25T11:43:21.579Z,10.50
2022-12-25T11:44:16.445Z,10.60
2022-12-25T11:45:04.405Z,10.40
2022-12-25T11:45:51.943Z,10.20
2022-12-25T11:46:42.985Z,10.40
2022-12-25T11:47:33.656Z,10.30
2022-12-25T11:49:12.198Z,10.40
2022-12-25T11:50:01.662Z,10.40
2022-12-25T11:51:03.378Z,10.70
2022-12-25T11:51:50.295Z,10.60
2022-12-25T11:52:38.407Z,10.40
2022-12-25T11:53:33.632Z,10.50
2022-12-25T11:54:33.277Z,10.30
2022-12-25T11:55:38.410Z,10.20
2022-12-25T11:56:25.652Z,10.50
2022-12-25T11:57:11.274Z,10.60
2022-12-25T11:57:58.601Z,10.30
2022-12-25T11:58:45.639Z,10.60
2022-12-25T12:00:06.630Z,10.40
2022-12-25T12:00:51.118Z,10.30
2022-12-25T12:01:42.874Z,10.50
2022-12-25T12:02:27.911Z,10.60
2022-12-25T12:03:20.844Z,10.50
2022-12-25T12:04:08.352Z,10.60
2022-12-25T12:05:02.095Z,10.30
2022-12-25T12:05:54.113Z,10.60
2022-12-25T12:07:01.559Z,10.50
2022-12-25T12:07:59.945Z,10.60
2022-12-25T12:08:42.712Z,10.50
2022-12-25T12:09:31.914Z,10.70
2022-12-25T12:10:24.080Z,10.70
2022-12-25T12:11:18.653Z,10.60
2022-12-25T12:12:23.243Z,10.80
2022-12-25T12:13:32.692Z,10.70
2022-12-25T12:14:26.682Z,10.70
2022-12-25T12:15:53.049Z,10.50
2022-12-25T12:16:35.695Z,10.80
2022-12-25T12:17:18.732Z,10.50
2022-12-25T12:18:26.257Z,10.70
2022-12-25T12:19:54.312Z,10.60
2022-12-25T12:20:37.168Z,10.80
2022-12-25T12:21:23.262Z,10.60
2022-12-25T12:22:05.799Z,10.50
2022-12-25T12:22:51.427Z,10.70
2022-12-25T12:24:05.949Z,10.30
2022-12-25T12:24:55.994Z,10.60
2022-12-25T12:25:42.547Z,10.60
2022-12-25T12:26:29.359Z,10.60
2022-12-25T12:27:20.023Z,10.60
2022-12-25T12:28:05.623Z,10.20
2022-12-25T12:28:48.398Z,10.60
2022-12-25T12:29:40.661Z,10.50
2022-12-25T12:30:34.784Z,10.40
2022-12-25T12:31:17.448Z,10.70
2022-12-25T12:32:04.850Z,10.70
2022-12-25T12:32:52.422Z,10.60
2022-12-25T12:33:41.347Z,10.40
2022-12-25T12:34:38.297Z,10.60
2022-12-25T12:35:27.814Z,10.60
2022-12-25T12:36:14.245Z,10.70
2022-12-25T12:37:10.138Z,10.80
2022-12-25T12:37:55.070Z,10.80
2022-12-25T12:38:37.167Z,10.60
2022-12-25T12:39:38.348Z,10.80
2022-12-25T12:40:38.387Z,10.70
2022-12-25T12:41:22.262Z,10.80
2022-12-25T12:42:16.976Z,10.70
2022-12-25T12:42:59.719Z,10.80
2022-12-25T12:43:52.437Z,10.80
2022-12-25T12:44:34.695Z,10.90
2022-12-25T12:45:25.413Z,10.90
2022-12-25T12:46:15.102Z,10.90
2022-12-25T12:46:57.780Z,10.90
2022-12-25T12:47:43.126Z,10.60
2022-12-25T12:48:28.109Z,10.90
2022-12-25T12:49:11.837Z,10.80
2022-12-25T12:50:01.192Z,11.00
2022-12-25T12:50:43.363Z,11.00
2022-12-25T12:51:31.258Z,11.00
2022-12-25T12:52:31.074Z,10.60
2022-12-25T12:53:24.647Z,10.90
2022-12-25T12:54:20.292Z,11.00
2022-12-25T12:55:06.423Z,10.90
2022-12-25T12:55:48.567Z,10.80
2022-12-25T12:56:30.327Z,10.70
2022-12-25T12:57:27.164Z,11.00
2022-12-25T12:58:24.728Z,10.90
2022-12-25T12:59:09.891Z,11.00
2022-12-25T12:59:52.269Z,11.10
2022-12-25T13:00:42.533Z,10.90
2022-12-25T13:01:40.402Z,11.00
2022-12-25T13:02:43.807Z,10.90
2022-12-25T13:03:51.191Z,10.90
2022-12-25T13:04:46.429Z,10.60
2022-12-25T13:05:37.137Z,10.70
2022-12-25T13:06:33.636Z,10.80
2022-12-25T13:07:21.247Z,10.40
2022-12-25T13:08:26.243Z,10.90
2022-12-25T13:09:29.357Z,10.80
2022-12-25T13:10:31.550Z,10.90
2022-12-25T13:11:23.777Z,10.70
2022-12-25T13:12:08.148Z,10.80
2022-12-25T13:12:59.369Z,10.90
2022-12-25T13:13:43.727Z,10.90
2022-12-25T13:14:25.810Z,10.90
2022-12-25T13:15:13.893Z,10.90
2022-12-25T13:15:57.655Z,10.60
2022-12-25T13:16:42.553Z,10.90
2022-12-25T13:17:26.122Z,10.90
2022-12-25T13:18:12.329Z,10.80
2022-12-25T13:18:55.932Z,10.80
2022-12-25T13:19:42.407Z,10.80
2022-12-25T13:20:36.492Z,10.80
2022-12-25T13:21:22.700Z,11.00
2022-12-25T13:22:06.455Z,10.80
2022-12-25T13:22:52.778Z,10.80
2022-12-25T13:23:37.477Z,10.70
2022-12-25T13:24:22.907Z,10.90
2022-12-25T13:25:14.875Z,10.90
2022-12-25T13:25:59.352Z,11.00
2022-12-25T13:26:41.309Z,10.60
2022-12-25T13:27:26.494Z,10.70
2022-12-25T13:28:14.716Z,11.00
2022-12-25T13:28:56.907Z,10.80
2022-12-25T13:29:39.008Z,10.80
2022-12-25T13:30:21.610Z,11.20
2022-12-25T13:31:23.212Z,10.70
2022-12-25T13:32:08.523Z,11.00
2022-12-25T13:32:50.564Z,10.90
2022-12-25T13:33:32.788Z,10.80
2022-12-25T13:34:34.299Z,10.90
2022-12-25T13:35:17.295Z,10.70
2022-12-25T13:35:59.412Z,11.40
2022-12-25T13:36:41.294Z,11.10
2022-12-25T13:37:26.011Z,11.00
2022-12-25T13:38:16.273Z,11.00
2022-12-25T13:38:59.475Z,11.00
2022-12-25T13:39:55.408Z,10.90
2022-12-25T13:40:37.817Z,11.00
2022-12-25T13:41:41.086Z,11.10
2022-12-25T13:42:26.163Z,11.00
2022-12-25T13:43:11.633Z,11.00
2022-12-25T13:43:58.268Z,10.90
2022-12-25T13:44:40.287Z,10.90
2022-12-25T13:45:25.986Z,11.10
2022-12-25T13:46:08.129Z,11.20
2022-12-25T13:46:49.942Z,11.20
2022-12-25T13:47:34.675Z,11.20
2022-12-25T13:48:17.615Z,11.10
2022-12-25T13:49:01.068Z,11.10
2022-12-25T13:49:43.326Z,11.00
2022-12-25T13:50:31.593Z,11.10
2022-12-25T13:51:16.829Z,11.10
2022-12-25T13:52:12.395Z,11.00
2022-12-25T13:52:56.188Z,11.20
2022-12-25T13:53:38.002Z,11.00
2022-12-25T13:54:19.931Z,11.00
2022-12-25T13:55:14.573Z,10.80
2022-12-25T13:55:58.827Z,11.00
2022-12-25T13:56:52.980Z,10.80
2022-12-25T13:57:38.507Z,11.30
2022-12-25T13:58:33.397Z,11.10
2022-12-25T13:59:23.834Z,11.10
2022-12-25T14:00:08.056Z,11.00
2022-12-25T14:00:55.669Z,10.80
2022-12-25T14:01:43.077Z,11.00
2022-12-25T14:02:30.796Z,11.00
2022-12-25T14:03:21.965Z,11.00
2022-12-25T14:04:03.838Z,10.80
2022-12-25T14:04:46.026Z,11.10
2022-12-25T14:05:37.886Z,11.10
2022-12-25T14:06:29.035Z,11.00
2022-12-25T14:07:12.128Z,10.90
2022-12-25T14:07:56.810Z,11.00
2022-12-25T14:08:38.658Z,11.10
2022-12-25T14:09:20.705Z,11.10
2022-12-25T14:10:03.479Z,11.10
2022-12-25T14:10:49.346Z,11.20
2022-12-25T14:11:34.431Z,11.00
2022-12-25T14:12:19.437Z,11.10
2022-12-25T14:13:05.477Z,11.00
2022-12-25T14:13:51.391Z,11.10
2022-12-25T14:15:20.469Z,11.00
2022-12-25T14:16:02.644Z,11.10
2022-12-25T14:16:49.599Z,11.10
2022-12-25T14:17:32.573Z,11.00
2022-12-25T14:18:16.717Z,11.40
2022-12-25T14:19:02.257Z,11.00
2022-12-25T14:19:44.116Z,11.00
2022-12-25T14:20:29.673Z,11.10
2022-12-25T14:21:26.508Z,10.80
2022-12-25T14:22:22.767Z,11.00
2022-12-25T14:23:50.953Z,11.10
2022-12-25T14:24:36.897Z,11.10
2022-12-25T14:26:01.172Z,10.90
2022-12-25T14:26:43.570Z,11.10
2022-12-25T14:27:28.256Z,10.70
2022-12-25T14:28:23.594Z,11.00
2022-12-25T14:29:05.376Z,11.10
2022-12-25T14:30:30.282Z,11.00
2022-12-25T14:31:12.654Z,10.80
2022-12-25T14:31:58.471Z,10.80
2022-12-25T14:32:46.606Z,11.10
2022-12-25T14:33:32.731Z,11.20
2022-12-25T14:34:22.507Z,11.10
2022-12-25T14:35:47.921Z,11.10
2022-12-25T14:36:31.252Z,11.00
2022-12-25T14:37:19.084Z,11.10
2022-12-25T14:38:00.944Z,11.00
2022-12-25T14:38:45.413Z,11.00
2022-12-25T14:39:32.431Z,9.10